createdAt,value
2023-01-11T00:01:53.112Z,101391.25
2023-01-11T00:04:20.813Z,101396.66
2023-01-11T00:06:48.249Z,101392.34
2023-01-11T00:09:16.077Z,101397.47
2023-01-11T00:11:43.426Z,101395.56
2023-01-11T00:14:10.778Z,101396.34
2023-01-11T00:16:38.169Z,101402.31
2023-01-11T00:19:05.476Z,101392.59
2023-01-11T00:21:32.837Z,101388.50
2023-01-11T00:24:00.117Z,101387.38
2023-01-11T00:26:27.457Z,101390.63
2023-01-11T00:28:54.866Z,101385.25
2023-01-11T00:31:22.306Z,101382.00
2023-01-11T00:33:49.689Z,101375.25
2023-01-11T00:36:17.066Z,101375.00
2023-01-11T00:38:44.340Z,101368.50
2023-01-11T00:41:32.104Z,101363.13
2023-01-11T00:44:18.357Z,101361.81
2023-01-11T00:47:04.256Z,101365.03
2023-01-11T00:49:31.671Z,101359.06
2023-01-11T00:51:59.217Z,101361.75
2023-01-11T00:54:26.501Z,101369.03
2023-01-11T00:56:53.871Z,101371.69
2023-01-11T00:59:21.161Z,101366.50
2023-01-11T01:01:51.224Z,101370.00
2023-01-11T01:04:18.558Z,101362.41
2023-01-11T01:06:45.951Z,101365.59
2023-01-11T01:09:13.196Z,101369.44
2023-01-11T01:11:40.552Z,101375.66
2023-01-11T01:14:26.553Z,101374.56
2023-01-11T01:16:56.615Z,101381.41
2023-01-11T01:19:24.186Z,101384.50
2023-01-11T01:21:51.495Z,101381.47
2023-01-11T01:24:18.870Z,101390.69
2023-01-11T01:27:04.973Z,101393.69
2023-01-11T01:29:32.236Z,101389.16
2023-01-11T01:31:59.673Z,101390.28
2023-01-11T01:34:27.006Z,101394.31
2023-01-11T01:36:54.247Z,101395.44
2023-01-11T01:39:21.523Z,101395.41
2023-01-11T01:41:48.815Z,101408.56
2023-01-11T01:44:53.009Z,101409.41
2023-01-11T01:47:25.978Z,101405.78
2023-01-11T01:49:53.547Z,101411.50
2023-01-11T01:52:21.286Z,101412.06
2023-01-11T01:54:49.657Z,101414.44
2023-01-11T01:57:23.148Z,101410.94
2023-01-11T01:59:51.964Z,101407.97
2023-01-11T02:02:24.794Z,101401.75
2023-01-11T02:04:55.731Z,101396.66
2023-01-11T02:07:31.723Z,101399.91
2023-01-11T02:10:14.010Z,101404.72
2023-01-11T02:12:57.728Z,101400.66
2023-01-11T02:15:29.738Z,101396.91
2023-01-11T02:17:58.557Z,101393.72
2023-01-11T02:20:26.033Z,101390.66
2023-01-11T02:23:11.331Z,101398.41
2023-01-11T02:25:45.176Z,101401.31
2023-01-11T02:28:21.754Z,101403.34
2023-01-11T02:30:49.082Z,101403.63
2023-01-11T02:33:32.948Z,101391.94
2023-01-11T02:36:17.680Z,101396.81
2023-01-11T02:38:51.446Z,101391.94
2023-01-11T02:42:01.648Z,101389.00
2023-01-11T02:44:57.093Z,101397.06
2023-01-11T02:47:41.479Z,101388.19
2023-01-11T02:50:14.832Z,101388.44
2023-01-11T02:52:54.185Z,101394.31
2023-01-11T02:55:28.897Z,101396.72
2023-01-11T02:58:00.718Z,101389.69
2023-01-11T03:00:28.010Z,101386.13
2023-01-11T03:03:10.498Z,101386.19
2023-01-11T03:05:44.204Z,101381.66
2023-01-11T03:08:30.121Z,101381.66
2023-01-11T03:11:07.523Z,101374.66
2023-01-11T03:13:51.665Z,101386.78
2023-01-11T03:16:29.961Z,101381.28
2023-01-11T03:19:12.535Z,101402.88
2023-01-11T03:22:03.214Z,101406.59
2023-01-11T03:24:52.797Z,101404.97
2023-01-11T03:27:37.885Z,101371.72
2023-01-11T03:30:33.590Z,101389.28
2023-01-11T03:33:11.356Z,101385.59
2023-01-11T03:35:50.923Z,101382.94
2023-01-11T03:38:28.254Z,101383.22
2023-01-11T03:41:04.506Z,101383.31
2023-01-11T03:43:36.019Z,101376.91
2023-01-11T03:46:14.931Z,101381.63
2023-01-11T03:49:10.539Z,101377.59
2023-01-11T03:51:43.400Z,101378.94
2023-01-11T03:54:16.159Z,101376.00
2023-01-11T03:56:59.246Z,101369.69
2023-01-11T03:59:27.539Z,101370.78
2023-01-11T04:01:56.053Z,101370.59
2023-01-11T04:04:24.461Z,101368.75
2023-01-11T04:06:51.941Z,101369.09
2023-01-11T04:09:19.298Z,101355.50
2023-01-11T04:11:46.703Z,101364.19
2023-01-11T04:14:14.080Z,101352.66
2023-01-11T04:16:41.592Z,101368.84
2023-01-11T04:19:08.967Z,101359.34
2023-01-11T04:21:36.420Z,101369.41
2023-01-11T04:24:04.047Z,101366.81
2023-01-11T04:26:31.652Z,101381.41
2023-01-11T04:28:59.152Z,101385.72
2023-01-11T04:31:27.051Z,101392.47
2023-01-11T04:33:54.665Z,101392.56
2023-01-11T04:36:22.280Z,101397.63
2023-01-11T04:38:49.595Z,101399.78
2023-01-11T04:41:35.649Z,101384.56
2023-01-11T04:44:02.921Z,101388.47
2023-01-11T04:46:30.409Z,101405.66
2023-01-11T04:48:57.823Z,101406.34
2023-01-11T04:51:25.464Z,101406.25
2023-01-11T04:53:53.209Z,101398.75
2023-01-11T04:56:20.516Z,101410.09
2023-01-11T04:58:47.788Z,101413.38
2023-01-11T05:01:18.437Z,101399.91
2023-01-11T05:03:46.648Z,101401.47
2023-01-11T05:06:15.396Z,101409.56
2023-01-11T05:08:47.430Z,101397.91
2023-01-11T05:11:16.324Z,101403.09
2023-01-11T05:13:43.919Z,101409.91
2023-01-11T05:16:17.954Z,101399.94
2023-01-11T05:18:53.614Z,101402.38
2023-01-11T05:21:23.965Z,101405.34
2023-01-11T05:23:52.425Z,101392.84
2023-01-11T05:26:27.391Z,101399.78
2023-01-11T05:28:57.098Z,101390.00
2023-01-11T05:31:25.234Z,101386.25
2023-01-11T05:33:53.006Z,101377.56
2023-01-11T05:36:21.654Z,101385.06
2023-01-11T05:38:50.611Z,101396.59
2023-01-11T05:41:19.534Z,101398.22
2023-01-11T05:44:07.556Z,101405.47
2023-01-11T05:46:36.842Z,101408.47
2023-01-11T05:49:05.330Z,101403.81
2023-01-11T05:51:33.250Z,101390.09
2023-01-11T05:54:02.361Z,101409.69
2023-01-11T05:56:30.293Z,101415.16
2023-01-11T05:58:58.155Z,101415.13
2023-01-11T06:01:26.367Z,101407.81
2023-01-11T06:03:53.714Z,101398.75
2023-01-11T06:06:21.774Z,101399.00
2023-01-11T06:08:49.419Z,101401.66
2023-01-11T06:11:16.854Z,101405.22
2023-01-11T06:13:44.156Z,101405.28
2023-01-11T06:16:17.513Z,101405.56
2023-01-11T06:18:47.574Z,101405.16
2023-01-11T06:21:16.159Z,101411.47
2023-01-11T06:23:45.852Z,101409.31
2023-01-11T06:26:18.780Z,101408.13
2023-01-11T06:28:46.382Z,101414.75
2023-01-11T06:31:16.969Z,101409.69
2023-01-11T06:33:45.901Z,101408.56
2023-01-11T06:36:14.345Z,101413.44
2023-01-11T06:38:42.818Z,101414.00
2023-01-11T06:41:11.248Z,101404.09
2023-01-11T06:43:41.813Z,101406.31
2023-01-11T06:46:14.920Z,101411.75
2023-01-11T06:48:43.360Z,101406.31
2023-01-11T06:51:12.141Z,101407.94
2023-01-11T06:53:41.091Z,101410.44
2023-01-11T06:56:12.641Z,101411.88
2023-01-11T06:58:40.053Z,101408.28
2023-01-11T07:01:07.630Z,101413.47
2023-01-11T07:03:35.403Z,101416.44
2023-01-11T07:06:04.421Z,101407.03
2023-01-11T07:08:31.775Z,101411.59
2023-01-11T07:10:59.179Z,101402.22
2023-01-11T07:13:26.519Z,101403.03
2023-01-11T07:15:57.331Z,101410.75
2023-01-11T07:18:24.788Z,101410.75
2023-01-11T07:20:52.229Z,101410.88
2023-01-11T07:23:19.691Z,101407.41
2023-01-11T07:25:49.488Z,101419.06
2023-01-11T07:28:16.869Z,101425.00
2023-01-11T07:30:57.432Z,101419.34
2023-01-11T07:33:26.198Z,101422.34
2023-01-11T07:35:53.910Z,101419.94
2023-01-11T07:38:21.455Z,101419.63
2023-01-11T07:40:48.824Z,101433.38
2023-01-11T07:43:18.211Z,101434.44
2023-01-11T07:45:50.457Z,101439.28
2023-01-11T07:48:21.115Z,101436.78
2023-01-11T07:50:48.991Z,101431.94
2023-01-11T07:53:16.847Z,101445.97
2023-01-11T07:55:44.594Z,101446.56
2023-01-11T07:58:13.280Z,101450.66
2023-01-11T08:00:41.208Z,101449.06
2023-01-11T08:03:09.532Z,101454.75
2023-01-11T08:05:37.349Z,101455.03
2023-01-11T08:08:05.800Z,101458.78
2023-01-11T08:10:34.386Z,101443.66
2023-01-11T08:13:20.605Z,101438.78
2023-01-11T08:15:47.998Z,101454.41
2023-01-11T08:18:17.130Z,101447.97
2023-01-11T08:20:45.719Z,101444.13
2023-01-11T08:23:13.082Z,101447.06
2023-01-11T08:25:40.498Z,101450.84
2023-01-11T08:28:08.010Z,101452.97
2023-01-11T08:30:36.739Z,101447.28
2023-01-11T08:33:05.530Z,101448.06
2023-01-11T08:35:38.164Z,101452.66
2023-01-11T08:38:05.696Z,101464.03
2023-01-11T08:40:33.023Z,101462.59
2023-01-11T08:43:00.325Z,101455.72
2023-01-11T08:45:28.092Z,101455.31
2023-01-11T08:47:55.598Z,101462.25
2023-01-11T08:50:23.351Z,101460.88
2023-01-11T08:52:51.823Z,101477.06
2023-01-11T08:55:20.075Z,101471.00
2023-01-11T08:57:47.505Z,101473.38
2023-01-11T09:00:15.477Z,101485.53
2023-01-11T09:02:45.278Z,101486.34
2023-01-11T09:05:12.784Z,101487.38
2023-01-11T09:07:40.528Z,101490.19
2023-01-11T09:10:08.547Z,101489.72
2023-01-11T09:12:36.064Z,101494.91
2023-01-11T09:15:05.977Z,101477.72
2023-01-11T09:17:33.919Z,101486.09
2023-01-11T09:20:01.248Z,101489.50
2023-01-11T09:22:28.827Z,101496.78
2023-01-11T09:24:58.969Z,101497.13
2023-01-11T09:27:26.591Z,101494.28
2023-01-11T09:29:53.941Z,101492.91
2023-01-11T09:32:21.691Z,101496.44
2023-01-11T09:34:49.796Z,101486.38
2023-01-11T09:37:17.537Z,101480.22
2023-01-11T09:39:45.473Z,101495.78
2023-01-11T09:42:31.479Z,101489.03
2023-01-11T09:45:14.353Z,101482.91
2023-01-11T09:48:11.698Z,101479.59
2023-01-11T09:50:47.768Z,101482.06
2023-01-11T09:53:32.237Z,101479.53
2023-01-11T09:56:03.751Z,101478.94
2023-01-11T09:58:50.980Z,101486.38
2023-01-11T10:01:39.228Z,101475.19
2023-01-11T10:04:33.111Z,101484.16
2023-01-11T10:07:34.693Z,101486.44
2023-01-11T10:18:23.717Z,101478.00
2023-01-11T10:18:33.758Z,101470.38
2023-01-11T10:19:57.979Z,101473.50
2023-01-11T10:22:41.020Z,101461.94
2023-01-11T10:25:26.698Z,101457.59
2023-01-11T10:27:58.983Z,101452.31
2023-01-11T10:30:51.440Z,101445.69
2023-01-11T10:33:43.591Z,101440.94
2023-01-11T10:36:22.446Z,101430.72
2023-01-11T10:39:27.315Z,101440.38
2023-01-11T10:42:09.591Z,101436.50
2023-01-11T10:45:00.388Z,101434.25
2023-01-11T10:48:02.731Z,101430.97
2023-01-11T10:50:38.770Z,101433.13
2023-01-11T10:53:12.785Z,101432.72
2023-01-11T10:55:59.232Z,101426.72
2023-01-11T10:58:46.154Z,101428.69
2023-01-11T11:01:39.458Z,101423.63
2023-01-11T11:04:15.802Z,101433.84
2023-01-11T11:07:21.279Z,101428.75
2023-01-11T11:09:51.382Z,101420.75
2023-01-11T11:12:24.598Z,101420.69
2023-01-11T11:15:03.348Z,101414.59
2023-01-11T11:17:33.335Z,101417.91
2023-01-11T11:20:00.998Z,101429.38
2023-01-11T11:22:28.331Z,101416.06
2023-01-11T11:25:01.535Z,101413.25
2023-01-11T11:27:37.905Z,101403.59
2023-01-11T11:30:05.786Z,101399.69
2023-01-11T11:32:36.952Z,101402.16
2023-01-11T11:35:04.953Z,101405.09
2023-01-11T11:37:35.373Z,101398.97
2023-01-11T11:40:04.031Z,101395.31
2023-01-11T11:42:31.383Z,101384.03
2023-01-11T11:45:13.673Z,101388.19
2023-01-11T11:47:41.220Z,101385.03
2023-01-11T11:50:43.310Z,101370.22
2023-01-11T11:53:22.647Z,101373.13
2023-01-11T11:55:51.783Z,101362.81
2023-01-11T11:58:23.863Z,101368.16
2023-01-11T12:00:52.049Z,101356.22
2023-01-11T12:03:22.830Z,101356.97
2023-01-11T12:06:03.770Z,101354.72
2023-01-11T12:08:34.669Z,101357.28
2023-01-11T12:11:05.716Z,101360.72
2023-01-11T12:13:38.395Z,101364.22
2023-01-11T12:16:18.218Z,101357.31
2023-01-11T12:18:45.928Z,101347.44
2023-01-11T12:21:42.397Z,101345.88
2023-01-11T12:24:18.389Z,101337.16
2023-01-11T12:26:48.751Z,101346.56
2023-01-11T12:29:16.087Z,101336.41
2023-01-11T12:31:55.535Z,101342.00
2023-01-11T12:34:37.717Z,101334.34
2023-01-11T12:37:04.984Z,101334.09
2023-01-11T12:39:53.246Z,101333.66
2023-01-11T12:42:37.738Z,101335.97
2023-01-11T12:45:16.172Z,101331.50
2023-01-11T12:48:10.193Z,101322.84
2023-01-11T12:51:13.358Z,101320.75
2023-01-11T12:54:10.488Z,101322.25
2023-01-11T12:56:56.240Z,101307.75
2023-01-11T12:59:32.475Z,101306.03
2023-01-11T13:02:12.732Z,101311.75
2023-01-11T13:05:05.436Z,101309.53
2023-01-11T13:07:43.460Z,101308.84
2023-01-11T13:10:40.154Z,101301.25
2023-01-11T13:13:11.711Z,101304.22
2023-01-11T13:15:43.233Z,101293.13
2023-01-11T13:18:42.359Z,101285.72
2023-01-11T13:21:31.781Z,101285.31
2023-01-11T13:24:03.832Z,101287.84
2023-01-11T13:26:35.076Z,101293.97
2023-01-11T13:29:14.177Z,101281.09
2023-01-11T13:31:44.290Z,101276.78
2023-01-11T13:34:26.959Z,101268.44
2023-01-11T13:37:06.451Z,101262.28
2023-01-11T13:39:43.194Z,101273.75
2023-01-11T13:42:25.042Z,101263.91
2023-01-11T13:45:03.228Z,101263.50
2023-01-11T13:47:39.834Z,101266.72
2023-01-11T13:50:22.511Z,101271.94
2023-01-11T13:53:03.326Z,101267.41
2023-01-11T13:55:48.292Z,101258.78
2023-01-11T13:58:24.752Z,101262.69
2023-01-11T14:01:03.317Z,101256.06
2023-01-11T14:03:46.983Z,101249.13
2023-01-11T14:06:39.928Z,101247.19
2023-01-11T14:09:44.792Z,101249.91
2023-01-11T14:12:16.877Z,101245.59
2023-01-11T14:14:58.431Z,101251.84
2023-01-11T14:17:51.838Z,101255.19
2023-01-11T14:20:29.404Z,101259.09
2023-01-11T14:23:17.356Z,101262.53
2023-01-11T14:26:07.206Z,101265.34
2023-01-11T14:28:50.533Z,101254.75
2023-01-11T14:32:07.333Z,101257.78
2023-01-11T14:35:19.791Z,101262.53
2023-01-11T14:38:22.742Z,101272.25
2023-01-11T14:41:02.085Z,101270.69
2023-01-11T14:44:02.792Z,101265.00
2023-01-11T14:46:33.298Z,101257.03
2023-01-11T14:49:33.745Z,101256.22
2023-01-11T14:52:34.413Z,101249.06
2023-01-11T14:55:15.782Z,101256.91
2023-01-11T14:58:01.243Z,101257.00
2023-01-11T15:00:28.569Z,101248.13
2023-01-11T15:03:02.009Z,101255.03
2023-01-11T15:05:29.293Z,101248.66
2023-01-11T15:08:23.472Z,101236.66
2023-01-11T15:11:24.238Z,101227.72
2023-01-11T15:14:19.174Z,101226.78
2023-01-11T15:17:10.009Z,101224.22
2023-01-11T15:19:41.768Z,101222.75
2023-01-11T15:22:23.300Z,101217.97
2023-01-11T15:25:03.205Z,101222.34
2023-01-11T15:27:34.273Z,101217.00
2023-01-11T15:30:02.883Z,101216.81
2023-01-11T15:32:33.071Z,101207.25
2023-01-11T15:35:25.153Z,101201.41
2023-01-11T15:37:55.145Z,101196.94
2023-01-11T15:40:26.586Z,101187.53
2023-01-11T15:43:24.904Z,101187.91
2023-01-11T15:46:34.909Z,101205.34
2023-01-11T15:49:44.820Z,101212.88
2023-01-11T15:52:33.429Z,101214.34
2023-01-11T15:55:39.949Z,101211.41
2023-01-11T15:58:19.522Z,101217.97
2023-01-11T16:01:20.422Z,101226.66
2023-01-11T16:04:01.835Z,101231.03
2023-01-11T16:06:35.284Z,101228.94
2023-01-11T16:09:34.163Z,101232.03
2023-01-11T16:12:35.522Z,101242.41
2023-01-11T16:15:09.102Z,101244.41
2023-01-11T16:17:40.299Z,101254.78
2023-01-11T16:20:26.244Z,101264.78
2023-01-11T16:22:57.261Z,101262.97
2023-01-11T16:25:30.061Z,101274.03
2023-01-11T16:27:59.616Z,101258.94
2023-01-11T16:30:28.170Z,101247.88
2023-01-11T16:33:21.115Z,101258.13
2023-01-11T16:35:49.649Z,101245.91
2023-01-11T16:38:21.296Z,101248.72
2023-01-11T16:40:52.758Z,101239.84
2023-01-11T16:43:31.067Z,101244.75
2023-01-11T16:45:58.564Z,101254.03
2023-01-11T16:48:29.985Z,101258.16
2023-01-11T16:51:16.371Z,101262.78
2023-01-11T16:53:53.496Z,101256.28
2023-01-11T16:56:23.682Z,101271.19
2023-01-11T16:59:24.540Z,101269.50
2023-01-11T17:01:58.872Z,101268.97
2023-01-11T17:04:36.688Z,101274.41
2023-01-11T17:07:20.362Z,101268.75
2023-01-11T17:09:48.077Z,101272.88
2023-01-11T17:12:26.373Z,101268.81
2023-01-11T17:15:28.830Z,101272.31
2023-01-11T17:17:56.072Z,101266.88
2023-01-11T17:20:30.899Z,101278.81
2023-01-11T17:22:59.089Z,101276.72
2023-01-11T17:25:43.867Z,101286.72
2023-01-11T17:28:18.679Z,101286.97
2023-01-11T17:30:49.406Z,101276.75
2023-01-11T17:33:32.387Z,101277.00
2023-01-11T17:36:01.854Z,101281.28
2023-01-11T17:38:30.293Z,101277.75
2023-01-11T17:40:58.607Z,101281.50
2023-01-11T17:43:48.486Z,101278.78
2023-01-11T17:46:18.657Z,101294.22
2023-01-11T17:48:58.275Z,101288.00
2023-01-11T17:51:27.700Z,101277.69
2023-01-11T17:53:55.194Z,101287.16
2023-01-11T17:56:45.573Z,101296.38
2023-01-11T17:59:18.922Z,101299.09
2023-01-11T18:01:49.235Z,101295.03
2023-01-11T18:04:22.017Z,101300.41
2023-01-11T18:06:52.831Z,101308.28
2023-01-11T18:09:24.144Z,101313.72
2023-01-11T18:11:52.991Z,101318.38
2023-01-11T18:14:27.826Z,101315.38
2023-01-11T18:17:01.062Z,101310.19
2023-01-11T18:19:42.854Z,101306.97
2023-01-11T18:22:33.418Z,101307.75
2023-01-11T18:25:06.022Z,101313.41
2023-01-11T18:27:35.395Z,101308.81
2023-01-11T18:30:07.707Z,101299.88
2023-01-11T18:32:42.570Z,101300.09
2023-01-11T18:35:19.940Z,101304.13
2023-01-11T18:37:47.474Z,101290.31
2023-01-11T18:40:16.352Z,101288.41
2023-01-11T18:42:46.919Z,101290.59
2023-01-11T18:45:14.746Z,101293.56
2023-01-11T18:47:42.115Z,101299.78
2023-01-11T18:50:14.304Z,101313.28
2023-01-11T18:52:41.592Z,101301.41
2023-01-11T18:55:11.435Z,101291.13
2023-01-11T18:57:38.969Z,101289.50
2023-01-11T19:00:06.827Z,101286.53
2023-01-11T19:02:42.856Z,101277.84
2023-01-11T19:05:12.628Z,101269.22
2023-01-11T19:07:39.969Z,101285.44
2023-01-11T19:10:08.188Z,101286.53
2023-01-11T19:12:35.541Z,101293.31
2023-01-11T19:15:02.869Z,101299.56
2023-01-11T19:17:31.653Z,101301.94
2023-01-11T19:19:59.076Z,101305.53
2023-01-11T19:22:27.033Z,101299.19
2023-01-11T19:24:54.918Z,101294.38
2023-01-11T19:27:23.089Z,101306.81
2023-01-11T19:29:51.598Z,101306.56
2023-01-11T19:32:23.585Z,101300.38
2023-01-11T19:34:53.432Z,101307.97
2023-01-11T19:37:20.805Z,101308.47
2023-01-11T19:39:48.425Z,101310.94
2023-01-11T19:42:15.858Z,101315.00
2023-01-11T19:44:43.166Z,101322.59
2023-01-11T19:47:13.459Z,101328.00
2023-01-11T19:49:42.283Z,101332.31
2023-01-11T19:52:18.675Z,101337.72
2023-01-11T19:54:47.287Z,101338.81
2023-01-11T19:57:20.683Z,101333.16
2023-01-11T19:59:49.627Z,101339.66
2023-01-11T20:02:19.688Z,101351.56
2023-01-11T20:04:47.505Z,101365.28
2023-01-11T20:07:15.870Z,101355.88
2023-01-11T20:09:43.603Z,101363.19
2023-01-11T20:12:12.581Z,101365.09
2023-01-11T20:14:40.744Z,101360.69
2023-01-11T20:17:08.597Z,101362.88
2023-01-11T20:19:36.187Z,101369.16
2023-01-11T20:22:03.798Z,101362.41
2023-01-11T20:24:31.448Z,101353.72
2023-01-11T20:27:00.389Z,101357.00
2023-01-11T20:29:27.836Z,101353.50
2023-01-11T20:31:55.799Z,101339.69
2023-01-11T20:34:24.034Z,101330.72
2023-01-11T20:36:51.625Z,101339.91
2023-01-11T20:39:19.035Z,101328.91
2023-01-11T20:41:50.070Z,101332.13
2023-01-11T20:44:24.394Z,101321.84
2023-01-11T20:46:53.276Z,101327.53
2023-01-11T20:49:23.416Z,101329.97
2023-01-11T20:51:50.820Z,101328.91
2023-01-11T20:54:19.172Z,101333.22
2023-01-11T20:56:47.004Z,101349.16
2023-01-11T20:59:17.378Z,101358.06
2023-01-11T21:01:44.898Z,101350.50
2023-01-11T21:04:13.645Z,101357.25
2023-01-11T21:06:43.518Z,101336.19
2023-01-11T21:09:14.267Z,101324.25
2023-01-11T21:11:42.155Z,101314.25
2023-01-11T21:14:12.139Z,101320.22
2023-01-11T21:16:44.370Z,101322.06
2023-01-11T21:19:14.160Z,101315.59
2023-01-11T21:21:42.168Z,101319.94
2023-01-11T21:24:12.531Z,101322.91
2023-01-11T21:26:42.385Z,101318.06
2023-01-11T21:29:11.751Z,101312.59
2023-01-11T21:31:40.258Z,101308.00
2023-01-11T21:34:09.696Z,101317.75
2023-01-11T21:36:37.068Z,101314.00
2023-01-11T21:39:04.565Z,101308.34
2023-01-11T21:41:52.121Z,101318.06
2023-01-11T21:44:21.319Z,101321.78
2023-01-11T21:46:50.063Z,101328.22
2023-01-11T21:49:17.840Z,101344.19
2023-01-11T21:51:45.359Z,101346.13
2023-01-11T21:54:14.652Z,101358.28
2023-01-11T21:56:42.132Z,101362.59
2023-01-11T21:59:10.169Z,101362.34
2023-01-11T22:01:39.592Z,101367.44
2023-01-11T22:04:08.992Z,101376.59
2023-01-11T22:06:37.953Z,101371.47
2023-01-11T22:09:06.624Z,101375.53
2023-01-11T22:11:33.979Z,101371.47
2023-01-11T22:14:02.846Z,101371.19
2023-01-11T22:16:31.290Z,101370.31
2023-01-11T22:19:00.227Z,101371.94
2023-01-11T22:21:28.346Z,101361.59
2023-01-11T22:23:57.684Z,101364.22
2023-01-11T22:26:26.327Z,101355.94
2023-01-11T22:29:13.921Z,101338.81
2023-01-11T22:31:47.346Z,101335.53
2023-01-11T22:34:15.318Z,101323.75
2023-01-11T22:36:43.559Z,101311.41
2023-01-11T22:39:12.293Z,101301.75
2023-01-11T22:41:40.507Z,101286.34
2023-01-11T22:44:10.219Z,101290.44
2023-01-11T22:46:37.893Z,101273.38
2023-01-11T22:49:08.792Z,101258.09
2023-01-11T22:51:36.165Z,101245.56
2023-01-11T22:54:04.431Z,101251.88
2023-01-11T22:56:32.157Z,101264.56
2023-01-11T22:59:00.274Z,101281.88
2023-01-11T23:01:30.390Z,101297.81
2023-01-11T23:03:58.590Z,101322.13
2023-01-11T23:06:31.259Z,101358.09
2023-01-11T23:08:59.362Z,101392.59
2023-01-11T23:11:52.040Z,101398.84
2023-01-11T23:14:20.139Z,101389.13
2023-01-11T23:16:49.276Z,101387.75
2023-01-11T23:19:18.308Z,101387.00
2023-01-11T23:21:47.355Z,101391.25
2023-01-11T23:24:16.442Z,101397.25
2023-01-11T23:26:44.588Z,101405.34
2023-01-11T23:29:12.383Z,101415.41
2023-01-11T23:31:40.057Z,101426.94
2023-01-11T23:34:08.527Z,101417.53
2023-01-11T23:36:38.491Z,101424.59
2023-01-11T23:39:07.935Z,101427.31
2023-01-11T23:41:54.603Z,101422.72
2023-01-11T23:44:22.890Z,101420.28
2023-01-11T23:47:09.225Z,101421.34
2023-01-11T23:49:36.929Z,101412.41
2023-01-11T23:52:04.345Z,101408.88
2023-01-11T23:54:33.306Z,101416.97
2023-01-11T23:57:02.249Z,101421.00
2023-01-11T23:59:29.867Z,101415.31
